sensor_id;sensor_type;location;lat;lon;timestamp;temperature;humidity
56076;DHT22;41951;49.022;12.066;2023-08-21T00:00:07;23.20;99.90
56076;DHT22;41951;49.022;12.066;2023-08-21T00:02:32;23.20;99.90
56076;DHT22;41951;49.022;12.066;2023-08-21T00:04:58;23.20;99.90
56076;DHT22;41951;49.022;12.066;2023-08-21T00:07:23;23.10;99.90
56076;DHT22;41951;49.022;12.066;2023-08-21T00:09:49;23.20;99.90
56076;DHT22;41951;49.022;12.066;2023-08-21T00:12:15;23.20;99.90
56076;DHT22;41951;49.022;12.066;2023-08-21T00:14:41;23.10;99.90
56076;DHT22;41951;49.022;12.066;2023-08-21T00:17:07;23.00;99.90
56076;DHT22;41951;49.022;12.066;2023-08-21T00:19:33;22.80;99.90
56076;DHT22;41951;49.022;12.066;2023-08-21T00:21:59;22.70;99.90
56076;DHT22;41951;49.022;12.066;2023-08-21T00:24:25;22.70;99.90
56076;DHT22;41951;49.022;12.066;2023-08-21T00:26:51;22.70;99.90
56076;DHT22;41951;49.022;12.066;2023-08-21T00:29:16;22.80;99.90
56076;DHT22;41951;49.022;12.066;2023-08-21T00:31:42;22.70;99.90
56076;DHT22;41951;49.022;12.066;2023-08-21T00:34:08;22.60;99.90
56076;DHT22;41951;49.022;12.066;2023-08-21T00:36:33;22.40;99.90
56076;DHT22;41951;49.022;12.066;2023-08-21T00:38:59;22.30;99.90
56076;DHT22;41951;49.022;12.066;2023-08-21T00:41:24;22.20;99.90
56076;DHT22;41951;49.022;12.066;2023-08-21T00:43:50;22.10;99.90
56076;DHT22;41951;49.022;12.066;2023-08-21T00:46:16;22.10;99.90
56076;DHT22;41951;49.022;12.066;2023-08-21T00:48:43;22.10;99.90
56076;DHT22;41951;49.022;12.066;2023-08-21T00:51:10;22.10;99.90
56076;DHT22;41951;49.022;12.066;2023-08-21T00:53:37;22.20;99.90
56076;DHT22;41951;49.022;12.066;2023-08-21T00:56:03;22.20;99.90
56076;DHT22;41951;49.022;12.066;2023-08-21T00:58:29;22.20;99.90
56076;DHT22;41951;49.022;12.066;2023-08-21T01:00:54;22.10;99.90
56076;DHT22;41951;49.022;12.066;2023-08-21T01:03:20;22.00;99.90
56076;DHT22;41951;49.022;12.066;2023-08-21T01:05:46;22.10;99.90
56076;DHT22;41951;49.022;12.066;2023-08-21T01:16:03;22.30;99.90
56076;DHT22;41951;49.022;12.066;2023-08-21T01:18:31;22.40;99.90
56076;DHT22;41951;49.022;12.066;2023-08-21T01:20:59;22.50;99.90
56076;DHT22;41951;49.022;12.066;2023-08-21T01:23:38;22.40;99.90
56076;DHT22;41951;49.022;12.066;2023-08-21T01:26:04;22.30;99.90
56076;DHT22;41951;49.022;12.066;2023-08-21T01:28:31;22.20;99.90
56076;DHT22;41951;49.022;12.066;2023-08-21T01:31:08;22.20;99.90
56076;DHT22;41951;49.022;12.066;2023-08-21T01:33:42;22.30;99.90
56076;DHT22;41951;49.022;12.066;2023-08-21T01:36:10;22.40;99.90
56076;DHT22;41951;49.022;12.066;2023-08-21T01:38:36;22.30;99.90
56076;DHT22;41951;49.022;12.066;2023-08-21T01:41:02;22.30;99.90
56076;DHT22;41951;49.022;12.066;2023-08-21T01:43:28;22.30;99.90
56076;DHT22;41951;49.022;12.066;2023-08-21T01:45:54;22.30;99.90
56076;DHT22;41951;49.022;12.066;2023-08-21T01:48:20;22.10;99.90
56076;DHT22;41951;49.022;12.066;2023-08-21T01:50:45;22.00;99.90
56076;DHT22;41951;49.022;12.066;2023-08-21T01:53:11;21.80;99.90
56076;DHT22;41951;49.022;12.066;2023-08-21T01:55:36;21.70;99.90
56076;DHT22;41951;49.022;12.066;2023-08-21T01:58:02;21.70;99.90
56076;DHT22;41951;49.022;12.066;2023-08-21T02:00:28;21.70;99.90
56076;DHT22;41951;49.022;12.066;2023-08-21T02:02:53;21.80;99.90
56076;DHT22;41951;49.022;12.066;2023-08-21T02:05:19;21.90;99.90
56076;DHT22;41951;49.022;12.066;2023-08-21T02:07:44;22.00;99.90
56076;DHT22;41951;49.022;12.066;2023-08-21T02:10:11;22.00;99.90
56076;DHT22;41951;49.022;12.066;2023-08-21T02:12:37;22.10;99.90
56076;DHT22;41951;49.022;12.066;2023-08-21T02:15:02;22.10;99.90
56076;DHT22;41951;49.022;12.066;2023-08-21T02:17:28;22.00;99.90
56076;DHT22;41951;49.022;12.066;2023-08-21T02:19:53;22.00;99.90
56076;DHT22;41951;49.022;12.066;2023-08-21T02:22:19;21.90;99.90
56076;DHT22;41951;49.022;12.066;2023-08-21T02:24:45;21.80;99.90
56076;DHT22;41951;49.022;12.066;2023-08-21T02:27:10;21.70;99.90
56076;DHT22;41951;49.022;12.066;2023-08-21T02:29:36;21.60;99.90
56076;DHT22;41951;49.022;12.066;2023-08-21T02:32:01;21.60;99.90
56076;DHT22;41951;49.022;12.066;2023-08-21T02:34:27;21.50;99.90
56076;DHT22;41951;49.022;12.066;2023-08-21T02:36:52;21.40;99.90
56076;DHT22;41951;49.022;12.066;2023-08-21T02:39:18;21.30;99.90
56076;DHT22;41951;49.022;12.066;2023-08-21T02:41:43;21.30;99.90
56076;DHT22;41951;49.022;12.066;2023-08-21T02:44:09;21.30;99.90
56076;DHT22;41951;49.022;12.066;2023-08-21T02:46:35;21.30;99.90
56076;DHT22;41951;49.022;12.066;2023-08-21T02:49:02;21.30;99.90
56076;DHT22;41951;49.022;12.066;2023-08-21T02:51:27;21.30;99.90
56076;DHT22;41951;49.022;12.066;2023-08-21T02:53:53;21.20;99.90
56076;DHT22;41951;49.022;12.066;2023-08-21T02:56:19;21.30;99.90
56076;DHT22;41951;49.022;12.066;2023-08-21T02:58:45;21.40;99.90
56076;DHT22;41951;49.022;12.066;2023-08-21T03:01:10;21.40;99.90
56076;DHT22;41951;49.022;12.066;2023-08-21T03:03:36;21.50;99.90
56076;DHT22;41951;49.022;12.066;2023-08-21T03:06:02;21.40;99.90
56076;DHT22;41951;49.022;12.066;2023-08-21T03:08:27;21.40;99.90
56076;DHT22;41951;49.022;12.066;2023-08-21T03:10:53;21.30;99.90
56076;DHT22;41951;49.022;12.066;2023-08-21T03:13:18;21.40;99.90
56076;DHT22;41951;49.022;12.066;2023-08-21T03:15:45;21.50;99.90
56076;DHT22;41951;49.022;12.066;2023-08-21T03:18:10;21.50;99.90
56076;DHT22;41951;49.022;12.066;2023-08-21T03:20:36;21.50;99.90
56076;DHT22;41951;49.022;12.066;2023-08-21T03:23:01;21.40;99.90
56076;DHT22;41951;49.022;12.066;2023-08-21T03:25:27;21.40;99.90
56076;DHT22;41951;49.022;12.066;2023-08-21T03:27:53;21.60;99.90
56076;DHT22;41951;49.022;12.066;2023-08-21T03:30:19;21.70;99.90
56076;DHT22;41951;49.022;12.066;2023-08-21T03:32:45;21.80;99.90
56076;DHT22;41951;49.022;12.066;2023-08-21T03:35:10;21.90;99.90
56076;DHT22;41951;49.022;12.066;2023-08-21T03:37:36;21.90;99.90
56076;DHT22;41951;49.022;12.066;2023-08-21T03:40:03;21.90;99.90
56076;DHT22;41951;49.022;12.066;2023-08-21T03:42:29;21.80;99.90
56076;DHT22;41951;49.022;12.066;2023-08-21T03:44:54;21.70;99.90
56076;DHT22;41951;49.022;12.066;2023-08-21T03:47:20;21.60;99.90
56076;DHT22;41951;49.022;12.066;2023-08-21T03:49:46;21.60;99.90
56076;DHT22;41951;49.022;12.066;2023-08-21T03:52:13;21.70;99.90
56076;DHT22;41951;49.022;12.066;2023-08-21T03:54:39;21.70;99.90
56076;DHT22;41951;49.022;12.066;2023-08-21T03:57:04;21.60;99.90
56076;DHT22;41951;49.022;12.066;2023-08-21T03:59:30;21.50;99.90
56076;DHT22;41951;49.022;12.066;2023-08-21T04:01:55;21.40;99.90
56076;DHT22;41951;49.022;12.066;2023-08-21T04:04:21;21.40;99.90
56076;DHT22;41951;49.022;12.066;2023-08-21T04:06:47;21.60;99.90
56076;DHT22;41951;49.022;12.066;2023-08-21T04:09:12;21.70;99.90
56076;DHT22;41951;49.022;12.066;2023-08-21T04:11:38;21.70;99.90
56076;DHT22;41951;49.022;12.066;2023-08-21T04:14:04;21.70;99.90
56076;DHT22;41951;49.022;12.066;2023-08-21T04:16:29;21.60;99.90
56076;DHT22;41951;49.022;12.066;2023-08-21T04:18:56;21.50;99.90
56076;DHT22;41951;49.022;12.066;2023-08-21T04:21:22;21.40;99.90
56076;DHT22;41951;49.022;12.066;2023-08-21T04:23:48;21.40;99.90
56076;DHT22;41951;49.022;12.066;2023-08-21T04:26:13;21.40;99.90
56076;DHT22;41951;49.022;12.066;2023-08-21T04:28:39;21.30;99.90
56076;DHT22;41951;49.022;12.066;2023-08-21T04:31:06;21.20;99.90
56076;DHT22;41951;49.022;12.066;2023-08-21T04:33:32;21.20;99.90
56076;DHT22;41951;49.022;12.066;2023-08-21T04:35:58;21.10;99.90
56076;DHT22;41951;49.022;12.066;2023-08-21T04:38:24;21.10;99.90
56076;DHT22;41951;49.022;12.066;2023-08-21T04:40:50;21.10;99.90
56076;DHT22;41951;49.022;12.066;2023-08-21T04:43:16;21.10;99.90
56076;DHT22;41951;49.022;12.066;2023-08-21T04:45:51;21.00;99.90
56076;DHT22;41951;49.022;12.066;2023-08-21T04:48:20;21.00;99.90
56076;DHT22;41951;49.022;12.066;2023-08-21T04:50:46;21.00;99.90
56076;DHT22;41951;49.022;12.066;2023-08-21T04:53:12;21.00;99.90
56076;DHT22;41951;49.022;12.066;2023-08-21T04:55:39;20.90;99.90
56076;DHT22;41951;49.022;12.066;2023-08-21T04:58:06;21.10;99.90
56076;DHT22;41951;49.022;12.066;2023-08-21T05:00:32;21.20;99.90
56076;DHT22;41951;49.022;12.066;2023-08-21T05:02:58;21.20;99.90
56076;DHT22;41951;49.022;12.066;2023-08-21T05:05:23;21.20;99.90
56076;DHT22;41951;49.022;12.066;2023-08-21T05:07:49;21.20;99.90
56076;DHT22;41951;49.022;12.066;2023-08-21T05:10:14;21.30;99.90
56076;DHT22;41951;49.022;12.066;2023-08-21T05:12:40;21.40;99.90
56076;DHT22;41951;49.022;12.066;2023-08-21T05:15:06;21.50;99.90
56076;DHT22;41951;49.022;12.066;2023-08-21T05:17:32;21.60;99.90
56076;DHT22;41951;49.022;12.066;2023-08-21T05:19:57;21.70;99.90
56076;DHT22;41951;49.022;12.066;2023-08-21T05:22:23;21.70;99.90
56076;DHT22;41951;49.022;12.066;2023-08-21T05:24:49;21.80;99.90
56076;DHT22;41951;49.022;12.066;2023-08-21T05:27:14;21.80;99.90
56076;DHT22;41951;49.022;12.066;2023-08-21T05:29:40;21.70;99.90
56076;DHT22;41951;49.022;12.066;2023-08-21T05:32:05;21.80;99.90
56076;DHT22;41951;49.022;12.066;2023-08-21T05:34:31;21.80;99.90
56076;DHT22;41951;49.022;12.066;2023-08-21T05:36:57;21.90;99.90
56076;DHT22;41951;49.022;12.066;2023-08-21T05:39:22;21.90;99.90
56076;DHT22;41951;49.022;12.066;2023-08-21T05:41:48;21.90;99.90
56076;DHT22;41951;49.022;12.066;2023-08-21T05:44:13;22.00;99.90
56076;DHT22;41951;49.022;12.066;2023-08-21T05:46:39;21.90;99.90
56076;DHT22;41951;49.022;12.066;2023-08-21T05:49:04;22.00;99.90
56076;DHT22;41951;49.022;12.066;2023-08-21T05:51:30;22.10;99.90
56076;DHT22;41951;49.022;12.066;2023-08-21T05:53:56;22.10;99.90
56076;DHT22;41951;49.022;12.066;2023-08-21T05:56:22;22.20;99.90
56076;DHT22;41951;49.022;12.066;2023-08-21T05:58:48;22.30;99.90
56076;DHT22;41951;49.022;12.066;2023-08-21T06:01:14;22.40;99.90
56076;DHT22;41951;49.022;12.066;2023-08-21T06:03:39;22.40;99.90
56076;DHT22;41951;49.022;12.066;2023-08-21T06:06:05;22.40;99.90
56076;DHT22;41951;49.022;12.066;2023-08-21T06:08:31;22.40;99.90
56076;DHT22;41951;49.022;12.066;2023-08-21T06:10:57;22.50;99.90
56076;DHT22;41951;49.022;12.066;2023-08-21T06:13:23;22.60;99.90
56076;DHT22;41951;49.022;12.066;2023-08-21T06:15:48;22.60;99.90
56076;DHT22;41951;49.022;12.066;2023-08-21T06:18:14;22.80;99.90
56076;DHT22;41951;49.022;12.066;2023-08-21T06:20:43;22.90;99.90
56076;DHT22;41951;49.022;12.066;2023-08-21T06:23:10;23.00;99.90
56076;DHT22;41951;49.022;12.066;2023-08-21T06:25:36;23.10;99.90
56076;DHT22;41951;49.022;12.066;2023-08-21T06:28:02;23.10;99.90
56076;DHT22;41951;49.022;12.066;2023-08-21T06:30:27;23.20;99.90
56076;DHT22;41951;49.022;12.066;2023-08-21T06:32:53;23.30;99.90
56076;DHT22;41951;49.022;12.066;2023-08-21T06:35:19;23.30;99.90
56076;DHT22;41951;49.022;12.066;2023-08-21T06:37:44;23.40;99.90
56076;DHT22;41951;49.022;12.066;2023-08-21T06:40:10;23.50;99.90
56076;DHT22;41951;49.022;12.066;2023-08-21T06:42:36;23.60;99.90
56076;DHT22;41951;49.022;12.066;2023-08-21T06:45:04;23.60;99.90
56076;DHT22;41951;49.022;12.066;2023-08-21T06:47:30;23.70;99.90
56076;DHT22;41951;49.022;12.066;2023-08-21T06:49:55;23.80;99.90
56076;DHT22;41951;49.022;12.066;2023-08-21T06:52:22;23.90;99.90
56076;DHT22;41951;49.022;12.066;2023-08-21T06:54:47;24.00;99.90
56076;DHT22;41951;49.022;12.066;2023-08-21T06:57:13;24.10;99.90
56076;DHT22;41951;49.022;12.066;2023-08-21T06:59:39;24.10;99.90
56076;DHT22;41951;49.022;12.066;2023-08-21T07:02:05;24.20;99.90
56076;DHT22;41951;49.022;12.066;2023-08-21T07:04:31;24.30;99.90
56076;DHT22;41951;49.022;12.066;2023-08-21T07:06:58;24.30;99.90
56076;DHT22;41951;49.022;12.066;2023-08-21T07:09:24;24.50;99.90
56076;DHT22;41951;49.022;12.066;2023-08-21T07:11:49;24.60;99.90
56076;DHT22;41951;49.022;12.066;2023-08-21T07:14:15;24.60;99.90
56076;DHT22;41951;49.022;12.066;2023-08-21T07:16:42;24.70;99.90
56076;DHT22;41951;49.022;12.066;2023-08-21T07:19:08;24.70;99.90
56076;DHT22;41951;49.022;12.066;2023-08-21T07:21:33;24.80;99.90
56076;DHT22;41951;49.022;12.066;2023-08-21T07:24:02;24.90;99.90
56076;DHT22;41951;49.022;12.066;2023-08-21T07:26:28;25.00;99.90
56076;DHT22;41951;49.022;12.066;2023-08-21T07:28:54;25.10;99.90
56076;DHT22;41951;49.022;12.066;2023-08-21T07:31:19;25.20;99.90
56076;DHT22;41951;49.022;12.066;2023-08-21T07:33:45;25.20;99.90
56076;DHT22;41951;49.022;12.066;2023-08-21T07:36:11;25.30;99.90
56076;DHT22;41951;49.022;12.066;2023-08-21T07:38:42;25.30;99.90
56076;DHT22;41951;49.022;12.066;2023-08-21T07:41:09;25.40;99.90
56076;DHT22;41951;49.022;12.066;2023-08-21T07:43:40;25.50;99.90
56076;DHT22;41951;49.022;12.066;2023-08-21T07:46:07;25.60;99.90
56076;DHT22;41951;49.022;12.066;2023-08-21T07:48:35;25.60;99.90
56076;DHT22;41951;49.022;12.066;2023-08-21T07:51:01;25.60;99.90
56076;DHT22;41951;49.022;12.066;2023-08-21T07:53:27;25.80;99.90
56076;DHT22;41951;49.022;12.066;2023-08-21T07:55:53;25.80;99.90
56076;DHT22;41951;49.022;12.066;2023-08-21T07:58:19;25.90;99.90
56076;DHT22;41951;49.022;12.066;2023-08-21T08:00:45;26.00;99.90
56076;DHT22;41951;49.022;12.066;2023-08-21T08:03:11;26.10;99.90
56076;DHT22;41951;49.022;12.066;2023-08-21T08:05:37;26.20;99.90
56076;DHT22;41951;49.022;12.066;2023-08-21T08:08:03;26.20;99.90
56076;DHT22;41951;49.022;12.066;2023-08-21T08:10:29;26.40;99.90
56076;DHT22;41951;49.022;12.066;2023-08-21T08:12:55;26.40;99.90
56076;DHT22;41951;49.022;12.066;2023-08-21T08:15:22;26.50;99.90
56076;DHT22;41951;49.022;12.066;2023-08-21T08:17:47;26.50;99.90
56076;DHT22;41951;49.022;12.066;2023-08-21T08:20:17;26.60;99.90
56076;DHT22;41951;49.022;12.066;2023-08-21T08:22:43;26.60;99.90
56076;DHT22;41951;49.022;12.066;2023-08-21T08:25:09;26.80;99.90
56076;DHT22;41951;49.022;12.066;2023-08-21T08:27:35;26.90;99.90
56076;DHT22;41951;49.022;12.066;2023-08-21T08:30:01;27.00;99.90
56076;DHT22;41951;49.022;12.066;2023-08-21T08:32:27;27.10;99.90
56076;DHT22;41951;49.022;12.066;2023-08-21T08:34:53;27.20;99.90
56076;DHT22;41951;49.022;12.066;2023-08-21T08:37:19;27.30;99.90
56076;DHT22;41951;49.022;12.066;2023-08-21T08:39:46;27.30;99.90
56076;DHT22;41951;49.022;12.066;2023-08-21T08:42:12;27.40;99.90
56076;DHT22;41951;49.022;12.066;2023-08-21T08:44:39;27.50;99.90
56076;DHT22;41951;49.022;12.066;2023-08-21T08:47:07;27.60;99.90
56076;DHT22;41951;49.022;12.066;2023-08-21T08:49:33;27.60;99.90
56076;DHT22;41951;49.022;12.066;2023-08-21T08:52:00;27.70;99.90
56076;DHT22;41951;49.022;12.066;2023-08-21T08:54:26;27.80;99.90
56076;DHT22;41951;49.022;12.066;2023-08-21T08:56:53;27.80;99.90
56076;DHT22;41951;49.022;12.066;2023-08-21T08:59:19;27.80;99.90
56076;DHT22;41951;49.022;12.066;2023-08-21T09:01:44;27.90;99.90
56076;DHT22;41951;49.022;12.066;2023-08-21T09:04:10;28.10;99.90
56076;DHT22;41951;49.022;12.066;2023-08-21T09:06:36;28.00;99.90
56076;DHT22;41951;49.022;12.066;2023-08-21T09:09:02;28.10;99.90
56076;DHT22;41951;49.022;12.066;2023-08-21T09:11:28;28.10;99.90
56076;DHT22;41951;49.022;12.066;2023-08-21T09:13:54;28.20;99.90
56076;DHT22;41951;49.022;12.066;2023-08-21T09:16:21;28.20;99.90
56076;DHT22;41951;49.022;12.066;2023-08-21T09:18:53;28.30;99.90
56076;DHT22;41951;49.022;12.066;2023-08-21T09:21:20;28.40;99.90
56076;DHT22;41951;49.022;12.066;2023-08-21T09:23:47;28.50;99.90
56076;DHT22;41951;49.022;12.066;2023-08-21T09:26:20;28.50;99.90
56076;DHT22;41951;49.022;12.066;2023-08-21T09:28:48;28.60;99.90
56076;DHT22;41951;49.022;12.066;2023-08-21T09:31:14;28.60;99.90
56076;DHT22;41951;49.022;12.066;2023-08-21T09:33:40;28.70;99.90
56076;DHT22;41951;49.022;12.066;2023-08-21T09:36:06;28.70;99.90
56076;DHT22;41951;49.022;12.066;2023-08-21T09:38:33;28.80;99.90
56076;DHT22;41951;49.022;12.066;2023-08-21T09:41:00;28.80;99.90
56076;DHT22;41951;49.022;12.066;2023-08-21T09:43:26;28.90;99.90
56076;DHT22;41951;49.022;12.066;2023-08-21T09:45:54;28.90;99.90
56076;DHT22;41951;49.022;12.066;2023-08-21T09:48:24;28.90;99.90
56076;DHT22;41951;49.022;12.066;2023-08-21T09:50:51;28.80;99.90
56076;DHT22;41951;49.022;12.066;2023-08-21T09:53:17;28.90;99.90
56076;DHT22;41951;49.022;12.066;2023-08-21T09:55:43;28.90;99.90
56076;DHT22;41951;49.022;12.066;2023-08-21T09:58:09;29.00;99.90
56076;DHT22;41951;49.022;12.066;2023-08-21T10:00:37;29.00;99.90
56076;DHT22;41951;49.022;12.066;2023-08-21T10:03:06;29.10;99.90
56076;DHT22;41951;49.022;12.066;2023-08-21T10:05:36;29.10;99.90
56076;DHT22;41951;49.022;12.066;2023-08-21T10:08:03;29.20;99.90
56076;DHT22;41951;49.022;12.066;2023-08-21T10:10:39;29.30;99.90
56076;DHT22;41951;49.022;12.066;2023-08-21T10:13:05;29.30;99.90
56076;DHT22;41951;49.022;12.066;2023-08-21T10:15:34;29.30;99.90
56076;DHT22;41951;49.022;12.066;2023-08-21T10:18:23;29.30;99.90
56076;DHT22;41951;49.022;12.066;2023-08-21T10:20:49;29.30;99.90
56076;DHT22;41951;49.022;12.066;2023-08-21T10:23:29;29.30;99.90
56076;DHT22;41951;49.022;12.066;2023-08-21T10:25:55;29.40;99.90
56076;DHT22;41951;49.022;12.066;2023-08-21T10:28:22;29.50;99.90
56076;DHT22;41951;49.022;12.066;2023-08-21T10:30:48;29.60;99.90
56076;DHT22;41951;49.022;12.066;2023-08-21T10:33:13;29.60;99.90
56076;DHT22;41951;49.022;12.066;2023-08-21T10:35:39;29.60;99.90
56076;DHT22;41951;49.022;12.066;2023-08-21T10:38:17;29.60;99.90
56076;DHT22;41951;49.022;12.066;2023-08-21T10:43:41;29.60;99.70
56076;DHT22;41951;49.022;12.066;2023-08-21T10:46:09;29.70;99.90
56076;DHT22;41951;49.022;12.066;2023-08-21T10:48:36;29.80;99.90
56076;DHT22;41951;49.022;12.066;2023-08-21T10:51:03;29.80;99.90
56076;DHT22;41951;49.022;12.066;2023-08-21T10:53:30;29.80;99.80
56076;DHT22;41951;49.022;12.066;2023-08-21T10:55:56;29.90;99.90
56076;DHT22;41951;49.022;12.066;2023-08-21T10:58:22;30.00;99.90
56076;DHT22;41951;49.022;12.066;2023-08-21T11:00:56;30.00;99.90
56076;DHT22;41951;49.022;12.066;2023-08-21T11:03:22;30.00;99.30
56076;DHT22;41951;49.022;12.066;2023-08-21T11:06:08;30.10;99.50
56076;DHT22;41951;49.022;12.066;2023-08-21T11:08:34;30.10;99.10
56076;DHT22;41951;49.022;12.066;2023-08-21T11:11:04;30.10;98.90
56076;DHT22;41951;49.022;12.066;2023-08-21T11:13:29;30.20;98.60
56076;DHT22;41951;49.022;12.066;2023-08-21T11:18:33;30.30;98.80
56076;DHT22;41951;49.022;12.066;2023-08-21T11:21:07;30.30;99.00
56076;DHT22;41951;49.022;12.066;2023-08-21T11:23:35;30.40;98.60
56076;DHT22;41951;49.022;12.066;2023-08-21T11:26:01;30.50;97.70
56076;DHT22;41951;49.022;12.066;2023-08-21T11:28:28;30.50;97.20
56076;DHT22;41951;49.022;12.066;2023-08-21T11:30:56;30.50;96.80
56076;DHT22;41951;49.022;12.066;2023-08-21T11:33:22;30.60;96.40
56076;DHT22;41951;49.022;12.066;2023-08-21T11:35:48;30.60;96.00
56076;DHT22;41951;49.022;12.066;2023-08-21T11:38:22;30.60;96.10
56076;DHT22;41951;49.022;12.066;2023-08-21T11:40:55;30.70;96.50
56076;DHT22;41951;49.022;12.066;2023-08-21T11:43:22;30.80;96.50
56076;DHT22;41951;49.022;12.066;2023-08-21T11:45:47;30.90;96.30
56076;DHT22;41951;49.022;12.066;2023-08-21T11:48:14;31.00;96.20
56076;DHT22;41951;49.022;12.066;2023-08-21T11:50:40;31.00;95.80
56076;DHT22;41951;49.022;12.066;2023-08-21T11:53:05;31.10;95.50
56076;DHT22;41951;49.022;12.066;2023-08-21T11:55:31;31.20;95.80
56076;DHT22;41951;49.022;12.066;2023-08-21T11:57:57;31.30;95.80
56076;DHT22;41951;49.022;12.066;2023-08-21T12:00:27;31.40;95.80
56076;DHT22;41951;49.022;12.066;2023-08-21T12:02:58;31.50;95.00
56076;DHT22;41951;49.022;12.066;2023-08-21T12:05:26;31.40;95.00
56076;DHT22;41951;49.022;12.066;2023-08-21T12:07:51;31.50;95.10
56076;DHT22;41951;49.022;12.066;2023-08-21T12:10:25;31.60;95.00
56076;DHT22;41951;49.022;12.066;2023-08-21T12:12:51;31.80;95.60
56076;DHT22;41951;49.022;12.066;2023-08-21T12:15:17;31.90;95.50
56076;DHT22;41951;49.022;12.066;2023-08-21T12:17:43;32.00;95.50
56076;DHT22;41951;49.022;12.066;2023-08-21T12:20:09;32.10;95.40
56076;DHT22;41951;49.022;12.066;2023-08-21T12:22:38;32.20;95.00
56076;DHT22;41951;49.022;12.066;2023-08-21T12:25:04;32.40;94.90
56076;DHT22;41951;49.022;12.066;2023-08-21T12:27:30;32.50;95.00
56076;DHT22;41951;49.022;12.066;2023-08-21T12:29:56;32.50;94.50
56076;DHT22;41951;49.022;12.066;2023-08-21T12:32:21;32.70;94.30
56076;DHT22;41951;49.022;12.066;2023-08-21T12:34:47;32.70;94.00
56076;DHT22;41951;49.022;12.066;2023-08-21T12:37:13;32.90;94.10
56076;DHT22;41951;49.022;12.066;2023-08-21T12:39:38;32.90;93.40
56076;DHT22;41951;49.022;12.066;2023-08-21T12:42:04;33.00;92.80
56076;DHT22;41951;49.022;12.066;2023-08-21T12:44:30;33.20;92.70
56076;DHT22;41951;49.022;12.066;2023-08-21T12:46:55;33.40;92.60
56076;DHT22;41951;49.022;12.066;2023-08-21T12:49:21;33.30;91.40
56076;DHT22;41951;49.022;12.066;2023-08-21T12:51:47;33.30;91.50
56076;DHT22;41951;49.022;12.066;2023-08-21T12:54:13;33.50;90.90
56076;DHT22;41951;49.022;12.066;2023-08-21T12:56:38;33.60;91.10
56076;DHT22;41951;49.022;12.066;2023-08-21T12:59:05;33.80;91.20
56076;DHT22;41951;49.022;12.066;2023-08-21T13:01:31;33.90;90.40
56076;DHT22;41951;49.022;12.066;2023-08-21T13:04:00;34.10;90.30
56076;DHT22;41951;49.022;12.066;2023-08-21T13:06:25;34.00;89.10
56076;DHT22;41951;49.022;12.066;2023-08-21T13:08:51;34.10;87.80
56076;DHT22;41951;49.022;12.066;2023-08-21T13:11:17;34.10;87.90
56076;DHT22;41951;49.022;12.066;2023-08-21T13:13:42;34.20;88.30
56076;DHT22;41951;49.022;12.066;2023-08-21T13:16:08;34.30;87.80
56076;DHT22;41951;49.022;12.066;2023-08-21T13:18:33;34.40;87.80
56076;DHT22;41951;49.022;12.066;2023-08-21T13:20:59;34.50;87.30
56076;DHT22;41951;49.022;12.066;2023-08-21T13:23:24;34.60;87.50
56076;DHT22;41951;49.022;12.066;2023-08-21T13:25:50;34.80;87.20
56076;DHT22;41951;49.022;12.066;2023-08-21T13:28:16;34.90;86.60
56076;DHT22;41951;49.022;12.066;2023-08-21T13:30:41;35.00;86.50
56076;DHT22;41951;49.022;12.066;2023-08-21T13:33:07;35.00;86.40
56076;DHT22;41951;49.022;12.066;2023-08-21T13:35:32;35.00;86.20
56076;DHT22;41951;49.022;12.066;2023-08-21T13:37:58;35.00;85.30
56076;DHT22;41951;49.022;12.066;2023-08-21T13:40:24;35.00;85.60
56076;DHT22;41951;49.022;12.066;2023-08-21T13:42:50;35.20;86.40
56076;DHT22;41951;49.022;12.066;2023-08-21T13:45:17;35.30;86.40
56076;DHT22;41951;49.022;12.066;2023-08-21T13:47:48;35.40;86.30
56076;DHT22;41951;49.022;12.066;2023-08-21T13:50:15;35.60;85.50
56076;DHT22;41951;49.022;12.066;2023-08-21T13:52:42;35.60;85.60
56076;DHT22;41951;49.022;12.066;2023-08-21T13:55:08;35.80;85.70
56076;DHT22;41951;49.022;12.066;2023-08-21T13:57:34;35.90;84.80
56076;DHT22;41951;49.022;12.066;2023-08-21T14:00:00;36.00;85.10
56076;DHT22;41951;49.022;12.066;2023-08-21T14:02:26;36.10;84.00
56076;DHT22;41951;49.022;12.066;2023-08-21T14:04:51;35.90;83.40
56076;DHT22;41951;49.022;12.066;2023-08-21T14:07:17;35.80;83.70
56076;DHT22;41951;49.022;12.066;2023-08-21T14:09:43;36.00;84.20
56076;DHT22;41951;49.022;12.066;2023-08-21T14:12:09;36.30;83.90
56076;DHT22;41951;49.022;12.066;2023-08-21T14:14:35;36.30;82.90
56076;DHT22;41951;49.022;12.066;2023-08-21T14:17:02;36.40;82.80
56076;DHT22;41951;49.022;12.066;2023-08-21T14:19:29;36.50;82.70
56076;DHT22;41951;49.022;12.066;2023-08-21T14:21:54;36.50;82.70
56076;DHT22;41951;49.022;12.066;2023-08-21T14:24:20;36.20;83.20
56076;DHT22;41951;49.022;12.066;2023-08-21T14:26:46;36.30;83.00
56076;DHT22;41951;49.022;12.066;2023-08-21T14:29:11;36.50;82.60
56076;DHT22;41951;49.022;12.066;2023-08-21T14:31:37;36.80;82.40
56076;DHT22;41951;49.022;12.066;2023-08-21T14:34:02;36.90;81.60
56076;DHT22;41951;49.022;12.066;2023-08-21T14:36:28;37.00;80.00
56076;DHT22;41951;49.022;12.066;2023-08-21T14:38:53;36.40;80.20
56076;DHT22;41951;49.022;12.066;2023-08-21T14:41:19;36.00;80.90
56076;DHT22;41951;49.022;12.066;2023-08-21T14:43:44;35.50;81.80
56076;DHT22;41951;49.022;12.066;2023-08-21T14:46:10;35.00;82.40
56076;DHT22;41951;49.022;12.066;2023-08-21T14:48:36;34.80;83.20
56076;DHT22;41951;49.022;12.066;2023-08-21T14:51:03;34.60;83.90
56076;DHT22;41951;49.022;12.066;2023-08-21T14:53:29;34.30;84.30
56076;DHT22;41951;49.022;12.066;2023-08-21T14:55:55;34.20;84.80
56076;DHT22;41951;49.022;12.066;2023-08-21T14:58:20;34.40;85.50
56076;DHT22;41951;49.022;12.066;2023-08-21T15:00:46;34.90;86.00
56076;DHT22;41951;49.022;12.066;2023-08-21T15:03:11;35.40;84.80
56076;DHT22;41951;49.022;12.066;2023-08-21T15:05:37;35.80;84.00
56076;DHT22;41951;49.022;12.066;2023-08-21T15:08:02;36.00;82.40
56076;DHT22;41951;49.022;12.066;2023-08-21T15:10:28;36.50;82.50
56076;DHT22;41951;49.022;12.066;2023-08-21T15:12:54;37.10;81.60
56076;DHT22;41951;49.022;12.066;2023-08-21T15:15:20;37.30;80.70
56076;DHT22;41951;49.022;12.066;2023-08-21T15:17:46;37.40;80.70
56076;DHT22;41951;49.022;12.066;2023-08-21T15:20:12;37.20;80.60
56076;DHT22;41951;49.022;12.066;2023-08-21T15:22:40;36.50;80.30